createdAt,value
2022-08-19T00:00:41.543Z,18.20
2022-08-19T00:01:45.312Z,18.20
2022-08-19T00:02:55.752Z,18.20
2022-08-19T00:04:03.903Z,18.20
2022-08-19T00:05:06.489Z,18.10
2022-08-19T00:06:08.373Z,18.10
2022-08-19T00:07:10.195Z,18.10
2022-08-19T00:08:12.240Z,18.10
2022-08-19T00:09:16.965Z,18.00
2022-08-19T00:10:20.215Z,18.00
2022-08-19T00:11:25.289Z,18.00
2022-08-19T00:12:28.392Z,18.00
2022-08-19T00:13:30.456Z,18.00
2022-08-19T00:14:32.923Z,18.00
2022-08-19T00:15:35.103Z,18.00
2022-08-19T00:16:42.211Z,18.00
2022-08-19T00:17:45.293Z,18.00
2022-08-19T00:18:48.727Z,18.00
2022-08-19T00:19:50.602Z,18.00
2022-08-19T00:20:52.918Z,18.00
2022-08-19T00:21:56.419Z,18.00
2022-08-19T00:22:58.683Z,18.00
2022-08-19T00:24:01.404Z,18.00
2022-08-19T00:25:03.746Z,18.00
2022-08-19T00:26:06.625Z,18.00
2022-08-19T00:27:25.810Z,18.00
2022-08-19T00:28:28.552Z,18.00
2022-08-19T00:29:30.358Z,18.00
2022-08-19T00:30:32.273Z,18.00
2022-08-19T00:31:34.405Z,18.00
2022-08-19T00:32:36.339Z,17.90
2022-08-19T00:33:38.266Z,18.00
2022-08-19T00:34:40.283Z,18.00
2022-08-19T00:35:42.229Z,17.90
2022-08-19T00:36:44.277Z,17.90
2022-08-19T00:37:46.256Z,17.90
2022-08-19T00:38:48.323Z,17.90
2022-08-19T00:39:52.372Z,17.90
2022-08-19T00:40:54.396Z,17.80
2022-08-19T00:41:56.371Z,17.80
2022-08-19T00:42:58.273Z,17.80
2022-08-19T00:44:22.685Z,17.80
2022-08-19T00:45:32.652Z,17.80
2022-08-19T00:46:41.648Z,17.70
2022-08-19T00:47:44.109Z,17.70
2022-08-19T00:48:45.913Z,17.70
2022-08-19T00:49:55.092Z,17.60
2022-08-19T00:50:57.773Z,17.60
2022-08-19T00:52:29.875Z,17.60
2022-08-19T00:53:35.050Z,17.60
2022-08-19T00:54:38.435Z,17.60
2022-08-19T00:55:40.822Z,17.60
2022-08-19T00:56:43.745Z,17.60
2022-08-19T00:57:55.840Z,17.60
2022-08-19T00:58:59.327Z,17.60
2022-08-19T01:00:03.626Z,17.60
2022-08-19T01:01:06.637Z,17.60
2022-08-19T01:02:09.058Z,17.60
2022-08-19T01:03:19.157Z,17.60
2022-08-19T01:04:21.170Z,17.60
2022-08-19T01:05:28.511Z,17.60
2022-08-19T01:06:33.493Z,17.60
2022-08-19T01:07:39.094Z,17.60
2022-08-19T01:08:41.227Z,17.60
2022-08-19T01:09:43.238Z,17.60
2022-08-19T01:10:49.978Z,17.60
2022-08-19T01:11:52.979Z,17.60
2022-08-19T01:12:56.811Z,17.50
2022-08-19T01:13:59.572Z,17.50
2022-08-19T01:15:01.689Z,17.50
2022-08-19T01:16:09.909Z,17.50
2022-08-19T01:17:12.855Z,17.50
2022-08-19T01:18:17.716Z,17.40
2022-08-19T01:19:44.292Z,17.40
2022-08-19T01:20:47.057Z,17.40
2022-08-19T01:21:58.843Z,17.30
2022-08-19T01:23:06.080Z,17.30
2022-08-19T01:24:08.072Z,17.20
2022-08-19T01:25:15.088Z,17.20
2022-08-19T01:26:20.711Z,17.30
2022-08-19T01:27:22.487Z,17.20
2022-08-19T01:28:39.644Z,17.20
2022-08-19T01:29:44.220Z,17.20
2022-08-19T01:30:50.935Z,17.20
2022-08-19T01:31:54.507Z,17.20
2022-08-19T01:32:57.138Z,17.10
2022-08-19T01:33:59.504Z,17.10
2022-08-19T01:35:03.516Z,17.10
2022-08-19T01:36:11.895Z,17.10
2022-08-19T01:37:15.511Z,17.10
2022-08-19T01:38:28.110Z,17.10
2022-08-19T01:39:30.020Z,17.00
2022-08-19T01:40:34.150Z,17.00
2022-08-19T01:41:37.357Z,17.00
2022-08-19T01:42:39.658Z,17.00
2022-08-19T01:44:13.981Z,17.00
2022-08-19T01:45:05.213Z,17.00
2022-08-19T01:46:07.445Z,17.00
2022-08-19T01:47:10.605Z,17.00
2022-08-19T01:48:13.101Z,17.00
2022-08-19T01:49:16.543Z,17.00
2022-08-19T01:50:18.409Z,17.10
2022-08-19T01:51:20.341Z,17.10
2022-08-19T01:52:22.297Z,17.10
2022-08-19T01:53:24.538Z,17.10
2022-08-19T01:54:32.992Z,17.10
2022-08-19T01:55:41.066Z,17.10
2022-08-19T01:56:43.475Z,17.10
2022-08-19T01:57:49.797Z,17.10
2022-08-19T01:58:57.611Z,17.10
2022-08-19T02:00:00.486Z,17.10
2022-08-19T02:01:02.869Z,17.10
2022-08-19T02:02:09.445Z,17.10
2022-08-19T02:03:12.380Z,17.10
2022-08-19T02:04:15.518Z,17.10
2022-08-19T02:05:19.036Z,17.10
2022-08-19T02:06:21.717Z,17.10
2022-08-19T02:07:30.384Z,17.10
2022-08-19T02:08:35.940Z,17.10
2022-08-19T02:09:37.732Z,17.10
2022-08-19T02:10:42.929Z,17.10
2022-08-19T02:11:45.235Z,17.10
2022-08-19T02:12:47.767Z,17.10
2022-08-19T02:13:50.638Z,17.10
2022-08-19T02:14:52.465Z,17.10
2022-08-19T02:15:54.423Z,17.10
2022-08-19T02:16:56.241Z,17.10
2022-08-19T02:17:58.055Z,17.10
2022-08-19T02:19:02.779Z,17.10
2022-08-19T02:20:05.414Z,17.10
2022-08-19T02:21:07.400Z,17.10
2022-08-19T02:22:09.243Z,17.10
2022-08-19T02:23:13.869Z,17.10
2022-08-19T02:24:17.985Z,17.10
2022-08-19T02:25:19.827Z,17.10
2022-08-19T02:26:21.878Z,17.10
2022-08-19T02:27:24.119Z,17.10
2022-08-19T02:28:26.124Z,17.00
2022-08-19T02:29:28.129Z,17.00
2022-08-19T02:30:31.575Z,17.00
2022-08-19T02:31:34.199Z,16.90
2022-08-19T02:32:36.164Z,16.90
2022-08-19T02:33:47.904Z,16.80
2022-08-19T02:34:50.252Z,16.80
2022-08-19T02:35:52.043Z,16.80
2022-08-19T02:36:53.874Z,16.80
2022-08-19T02:38:14.195Z,16.80
2022-08-19T02:39:16.493Z,16.70
2022-08-19T02:40:18.880Z,16.70
2022-08-19T02:41:27.869Z,16.70
2022-08-19T02:42:29.990Z,16.70
2022-08-19T02:43:36.812Z,16.70
2022-08-19T02:44:39.355Z,16.70
2022-08-19T02:45:41.561Z,16.60
2022-08-19T02:46:45.760Z,16.60
2022-08-19T02:47:47.757Z,16.60
2022-08-19T02:48:50.914Z,16.70
2022-08-19T02:49:52.671Z,16.70
2022-08-19T02:50:57.687Z,16.70
2022-08-19T02:51:59.465Z,16.70
2022-08-19T02:53:01.815Z,16.70
2022-08-19T02:54:05.076Z,16.70
2022-08-19T02:55:08.067Z,16.70
2022-08-19T02:56:10.099Z,16.70
2022-08-19T02:57:12.124Z,16.70
2022-08-19T02:58:15.327Z,16.60
2022-08-19T02:59:17.295Z,16.60
2022-08-19T03:00:19.234Z,16.60
2022-08-19T03:01:42.066Z,16.60
2022-08-19T03:02:44.039Z,16.60
2022-08-19T03:03:45.880Z,16.60
2022-08-19T03:04:47.924Z,16.60
2022-08-19T03:05:56.606Z,16.60
2022-08-19T03:07:07.139Z,16.50
2022-08-19T03:08:14.297Z,16.50
2022-08-19T03:09:17.360Z,16.50
2022-08-19T03:10:19.485Z,16.50
2022-08-19T03:11:27.332Z,16.50
2022-08-19T03:12:29.196Z,16.40
2022-08-19T03:13:31.286Z,16.40
2022-08-19T03:14:34.244Z,16.30
2022-08-19T03:15:39.504Z,16.30
2022-08-19T03:16:48.596Z,16.30
2022-08-19T03:17:50.575Z,16.30
2022-08-19T03:18:53.979Z,16.30
2022-08-19T03:19:57.267Z,16.30
2022-08-19T03:20:59.075Z,16.30
2022-08-19T03:22:01.503Z,16.30
2022-08-19T03:23:03.331Z,16.30
2022-08-19T03:24:07.954Z,16.40
2022-08-19T03:25:10.163Z,16.40
2022-08-19T03:26:15.872Z,16.40
2022-08-19T03:27:18.541Z,16.40
2022-08-19T03:28:22.096Z,16.40
2022-08-19T03:29:30.740Z,16.40
2022-08-19T03:30:33.738Z,16.40
2022-08-19T03:31:45.589Z,16.30
2022-08-19T03:32:56.949Z,16.30
2022-08-19T03:33:59.390Z,16.30
2022-08-19T03:35:01.294Z,16.30
2022-08-19T03:36:04.908Z,16.30
2022-08-19T03:37:15.524Z,16.30
2022-08-19T03:38:17.368Z,16.40
2022-08-19T03:39:19.346Z,16.40
2022-08-19T03:40:21.284Z,16.40
2022-08-19T03:41:26.978Z,16.40
2022-08-19T03:42:49.016Z,16.40
2022-08-19T03:44:01.568Z,16.30
2022-08-19T03:45:03.846Z,16.40
2022-08-19T03:46:09.516Z,16.30
2022-08-19T03:47:17.378Z,16.30
2022-08-19T03:48:19.389Z,16.30
2022-08-19T03:49:27.093Z,16.30
2022-08-19T03:50:30.732Z,16.30
2022-08-19T03:51:35.922Z,16.30
2022-08-19T03:52:38.247Z,16.30
2022-08-19T03:53:40.127Z,16.20
2022-08-19T03:54:42.231Z,16.20
2022-08-19T03:55:44.392Z,16.20
2022-08-19T03:56:48.607Z,16.20
2022-08-19T03:57:50.433Z,16.30
2022-08-19T03:58:53.600Z,16.20
2022-08-19T03:59:55.667Z,16.20
2022-08-19T04:01:21.098Z,16.20
2022-08-19T04:02:36.644Z,16.20
2022-08-19T04:03:39.265Z,16.20
2022-08-19T04:04:44.154Z,16.20
2022-08-19T04:05:47.747Z,16.20
2022-08-19T04:06:50.243Z,16.10
2022-08-19T04:07:52.510Z,16.10
2022-08-19T04:08:56.250Z,16.10
2022-08-19T04:09:58.370Z,16.10
2022-08-19T04:11:00.140Z,16.10
2022-08-19T04:12:02.187Z,16.20
2022-08-19T04:13:07.174Z,16.20
2022-08-19T04:14:13.723Z,16.20
2022-08-19T04:15:16.449Z,16.20
2022-08-19T04:16:20.768Z,16.10
2022-08-19T04:17:23.282Z,16.20
2022-08-19T04:18:25.231Z,16.20
2022-08-19T04:19:28.213Z,16.20
2022-08-19T04:20:30.141Z,16.20
2022-08-19T04:21:32.424Z,16.20
2022-08-19T04:22:34.274Z,16.20
2022-08-19T04:23:37.232Z,16.20
2022-08-19T04:24:46.575Z,16.20
2022-08-19T04:25:48.465Z,16.20
2022-08-19T04:26:51.432Z,16.30
2022-08-19T04:27:53.242Z,16.20
2022-08-19T04:28:56.381Z,16.30
2022-08-19T04:29:58.371Z,16.30
2022-08-19T04:31:00.423Z,16.30
2022-08-19T04:32:08.631Z,16.30
2022-08-19T04:33:14.202Z,16.30
2022-08-19T04:34:18.590Z,16.30
2022-08-19T04:35:24.914Z,16.30
2022-08-19T04:36:29.751Z,16.20
2022-08-19T04:37:35.114Z,16.20
2022-08-19T04:38:37.714Z,16.20
2022-08-19T04:39:58.987Z,16.20
2022-08-19T04:41:23.307Z,16.20
2022-08-19T04:42:40.040Z,16.20
2022-08-19T04:43:41.887Z,16.20
2022-08-19T04:44:46.050Z,16.10
2022-08-19T04:45:48.578Z,16.10
2022-08-19T04:46:52.239Z,16.00
2022-08-19T04:48:26.763Z,16.00
2022-08-19T04:49:23.408Z,16.00
2022-08-19T04:50:27.135Z,15.90
2022-08-19T04:51:32.336Z,15.90
2022-08-19T04:52:34.491Z,15.90
2022-08-19T04:53:38.479Z,15.90
2022-08-19T04:54:41.665Z,16.00
2022-08-19T04:55:44.081Z,16.00
2022-08-19T04:56:45.934Z,16.00
2022-08-19T04:57:48.082Z,16.00
2022-08-19T04:58:52.454Z,16.00
2022-08-19T04:59:57.546Z,16.00
2022-08-19T05:01:01.102Z,16.00
2022-08-19T05:02:03.850Z,16.00
2022-08-19T05:03:07.604Z,16.00
2022-08-19T05:04:10.216Z,16.00
2022-08-19T05:05:12.392Z,16.10
2022-08-19T05:06:15.908Z,16.10
2022-08-19T05:07:17.913Z,16.10
2022-08-19T05:08:30.946Z,16.10
2022-08-19T05:09:55.373Z,16.10
2022-08-19T05:10:58.316Z,16.10
2022-08-19T05:12:01.464Z,16.10
2022-08-19T05:13:04.138Z,16.20
2022-08-19T05:14:07.599Z,16.10
2022-08-19T05:15:10.089Z,16.20
2022-08-19T05:16:13.630Z,16.20
2022-08-19T05:17:37.502Z,16.20
2022-08-19T05:18:56.952Z,16.20
2022-08-19T05:20:17.394Z,16.20
2022-08-19T05:21:39.735Z,16.20
2022-08-19T05:22:43.803Z,16.20
2022-08-19T05:23:45.681Z,16.20
2022-08-19T05:25:11.233Z,16.20
2022-08-19T05:26:12.013Z,16.20
2022-08-19T05:27:14.369Z,16.30
2022-08-19T05:28:16.178Z,16.30
2022-08-19T05:29:20.970Z,16.30
2022-08-19T05:30:30.207Z,16.30
2022-08-19T05:31:46.057Z,16.30
2022-08-19T05:32:47.979Z,16.30
2022-08-19T05:33:51.017Z,16.30
2022-08-19T05:34:52.927Z,16.40
2022-08-19T05:35:55.258Z,16.40
2022-08-19T05:36:59.690Z,16.40
2022-08-19T05:38:01.543Z,16.40
2022-08-19T05:39:05.580Z,16.40
2022-08-19T05:40:08.431Z,16.40
2022-08-19T05:41:11.969Z,16.40
2022-08-19T05:42:14.016Z,16.40
2022-08-19T05:43:19.096Z,16.50
2022-08-19T05:44:23.106Z,16.50
2022-08-19T05:45:25.670Z,16.60
2022-08-19T05:46:27.789Z,16.60
2022-08-19T05:47:31.457Z,16.60
2022-08-19T05:48:35.291Z,16.60
2022-08-19T05:49:38.149Z,16.50
2022-08-19T05:50:42.580Z,16.60
2022-08-19T05:51:44.477Z,16.50
2022-08-19T05:52:54.454Z,16.50
2022-08-19T05:53:56.429Z,16.50
2022-08-19T05:54:58.239Z,16.50
2022-08-19T05:56:16.928Z,16.50
2022-08-19T05:57:21.137Z,16.60
2022-08-19T05:58:23.257Z,16.60
2022-08-19T05:59:29.869Z,16.60
2022-08-19T06:00:33.471Z,16.60
2022-08-19T06:01:36.231Z,16.60
2022-08-19T06:02:38.277Z,16.70
2022-08-19T06:03:40.697Z,16.70
2022-08-19T06:04:43.893Z,16.70
2022-08-19T06:05:51.565Z,16.80
2022-08-19T06:06:54.797Z,16.80
2022-08-19T06:07:57.674Z,16.80
2022-08-19T06:08:59.882Z,16.90
2022-08-19T06:10:01.755Z,16.90
2022-08-19T06:11:23.489Z,16.90
2022-08-19T06:12:29.598Z,16.90
2022-08-19T06:13:33.357Z,16.90
2022-08-19T06:14:40.423Z,16.90
2022-08-19T06:15:45.249Z,16.90
2022-08-19T06:16:47.649Z,16.90
2022-08-19T06:17:50.094Z,16.90
2022-08-19T06:18:53.481Z,17.00
2022-08-19T06:19:55.232Z,17.00
2022-08-19T06:20:57.177Z,17.00
2022-08-19T06:22:00.319Z,17.00
2022-08-19T06:23:02.711Z,17.00
2022-08-19T06:24:07.192Z,17.10
2022-08-19T06:25:12.687Z,17.10
2022-08-19T06:26:16.187Z,17.10
2022-08-19T06:27:17.992Z,17.20
2022-08-19T06:28:19.978Z,17.20
2022-08-19T06:29:24.873Z,17.30
2022-08-19T06:30:27.085Z,17.30
2022-08-19T06:31:32.266Z,17.30
2022-08-19T06:32:34.094Z,17.40
2022-08-19T06:33:37.706Z,17.40
2022-08-19T06:34:40.617Z,17.50
2022-08-19T06:36:50.628Z,17.50
2022-08-19T06:37:55.494Z,17.60
2022-08-19T06:39:21.099Z,17.60
2022-08-19T06:40:23.020Z,17.70
2022-08-19T06:41:29.353Z,17.70
2022-08-19T06:42:31.446Z,17.80
2022-08-19T06:43:33.296Z,17.80
2022-08-19T06:44:43.293Z,17.80
2022-08-19T06:45:45.750Z,17.90
2022-08-19T06:46:54.714Z,17.90
2022-08-19T06:47:57.202Z,18.00
2022-08-19T06:48:59.547Z,18.00
2022-08-19T06:50:03.906Z,18.00
2022-08-19T06:51:08.846Z,18.00
2022-08-19T06:52:16.091Z,18.10
2022-08-19T06:53:20.264Z,18.10
2022-08-19T06:54:24.111Z,18.10
2022-08-19T06:55:33.386Z,18.20
2022-08-19T06:56:36.361Z,18.20
2022-08-19T06:57:38.170Z,18.20
2022-08-19T06:58:40.001Z,18.20
2022-08-19T06:59:41.917Z,18.30
2022-08-19T07:00:43.786Z,18.30
2022-08-19T07:01:50.772Z,18.40
2022-08-19T07:02:59.069Z,18.40
2022-08-19T07:04:03.340Z,18.40
2022-08-19T07:05:06.823Z,18.40
2022-08-19T07:06:21.505Z,18.40
2022-08-19T07:07:35.738Z,18.50
2022-08-19T07:08:41.976Z,18.50
2022-08-19T07:09:46.036Z,18.50
2022-08-19T07:10:58.987Z,18.50
2022-08-19T07:12:01.404Z,18.60
2022-08-19T07:13:09.065Z,18.60
2022-08-19T07:14:18.904Z,18.70
2022-08-19T07:15:22.400Z,18.80
2022-08-19T07:16:29.209Z,18.80
2022-08-19T07:17:34.669Z,18.80
2022-08-19T07:18:38.998Z,18.90
2022-08-19T07:19:45.686Z,18.90
2022-08-19T07:20:49.209Z,19.00
2022-08-19T07:21:53.991Z,19.00
2022-08-19T07:22:56.462Z,19.00
2022-08-19T07:24:02.918Z,19.00
2022-08-19T07:25:09.687Z,19.10
2022-08-19T07:26:27.903Z,19.00
2022-08-19T07:27:30.107Z,19.10
2022-08-19T07:28:36.879Z,19.10
2022-08-19T07:29:39.098Z,19.20
2022-08-19T07:30:41.805Z,19.20
2022-08-19T07:31:45.833Z,19.30
2022-08-19T07:32:47.639Z,19.30
2022-08-19T07:33:55.837Z,19.40
2022-08-19T07:34:57.915Z,19.40
2022-08-19T07:36:00.019Z,19.40
2022-08-19T07:37:01.850Z,19.40
2022-08-19T07:38:04.117Z,19.40
2022-08-19T07:39:10.159Z,19.50
2022-08-19T07:40:13.336Z,19.50
2022-08-19T07:41:20.294Z,19.50
2022-08-19T07:42:22.219Z,19.50
2022-08-19T07:43:26.097Z,19.50
2022-08-19T07:45:41.004Z,19.50
2022-08-19T07:46:48.139Z,19.50
2022-08-19T07:47:53.289Z,19.50
2022-08-19T07:48:55.114Z,19.50
2022-08-19T07:49:57.558Z,19.50
2022-08-19T07:51:03.179Z,19.60
2022-08-19T07:52:08.151Z,19.60
2022-08-19T07:53:10.011Z,19.60
2022-08-19T07:54:12.991Z,19.70
2022-08-19T07:55:41.740Z,19.70
2022-08-19T07:56:36.851Z,19.70
2022-08-19T07:57:40.501Z,19.80
2022-08-19T07:58:45.051Z,19.80
2022-08-19T07:59:47.074Z,19.90
2022-08-19T08:00:51.384Z,19.90
2022-08-19T08:01:53.776Z,20.00
2022-08-19T08:02:56.206Z,20.00
2022-08-19T08:04:17.504Z,20.10
2022-08-19T08:05:40.671Z,20.20
2022-08-19T08:07:03.721Z,20.20
2022-08-19T08:08:48.037Z,20.30
2022-08-19T08:09:50.979Z,20.30
2022-08-19T08:10:54.720Z,20.40
2022-08-19T08:12:33.215Z,20.50
2022-08-19T08:13:39.113Z,20.60
2022-08-19T08:14:44.013Z,20.60
2022-08-19T08:15:46.177Z,20.60
2022-08-19T08:16:48.140Z,20.60
2022-08-19T08:17:51.806Z,20.70
2022-08-19T08:18:53.702Z,20.70
2022-08-19T08:19:56.871Z,20.70
2022-08-19T08:20:59.120Z,20.70
2022-08-19T08:22:02.279Z,20.70
2022-08-19T08:23:22.722Z,20.70
2022-08-19T08:24:28.306Z,20.60
2022-08-19T08:25:32.344Z,20.60
2022-08-19T08:26:36.283Z,20.60
2022-08-19T08:27:43.704Z,20.60
2022-08-19T08:28:49.601Z,20.60
2022-08-19T08:29:51.893Z,20.70
2022-08-19T08:30:55.596Z,20.70
2022-08-19T08:32:00.042Z,20.80
2022-08-19T08:33:02.638Z,20.80
2022-08-19T08:34:06.323Z,20.90
2022-08-19T08:35:11.079Z,20.90
2022-08-19T08:36:16.834Z,21.00
2022-08-19T08:37:20.446Z,21.00
2022-08-19T08:38:22.598Z,21.10
2022-08-19T08:39:24.681Z,21.10
2022-08-19T08:40:51.076Z,21.10
2022-08-19T08:42:17.729Z,21.30
2022-08-19T08:43:36.634Z,21.40
2022-08-19T08:46:12.943Z,21.50
2022-08-19T08:47:21.296Z,21.50
2022-08-19T08:48:35.588Z,21.60
2022-08-19T08:49:52.296Z,21.70
2022-08-19T08:50:57.452Z,21.70
2022-08-19T08:52:12.225Z,21.80
2022-08-19T08:53:17.307Z,21.80
2022-08-19T08:54:48.827Z,21.80
2022-08-19T08:55:57.251Z,21.90
2022-08-19T08:57:00.417Z,21.80
2022-08-19T08:58:07.521Z,21.90
2022-08-19T08:59:14.007Z,22.00
2022-08-19T09:00:22.308Z,22.00
2022-08-19T09:01:24.836Z,22.10
2022-08-19T09:02:32.885Z,22.20
2022-08-19T09:03:37.617Z,22.40
2022-08-19T09:04:40.262Z,22.70
2022-08-19T09:05:57.984Z,22.90
2022-08-19T09:07:26.237Z,23.30
2022-08-19T09:08:59.137Z,23.50
2022-08-19T09:10:11.642Z,23.70
2022-08-19T09:11:42.667Z,23.80
2022-08-19T09:13:19.756Z,23.90
2022-08-19T09:14:49.753Z,24.00
2022-08-19T09:16:05.463Z,24.30
2022-08-19T09:17:09.238Z,24.40
2022-08-19T09:18:19.075Z,24.40
2022-08-19T09:19:22.469Z,24.40
2022-08-19T09:20:26.742Z,24.30
2022-08-19T09:21:33.448Z,24.20
2022-08-19T09:22:45.110Z,24.20
2022-08-19T09:23:47.879Z,24.10
2022-08-19T09:24:53.481Z,24.10
2022-08-19T09:25:55.516Z,24.10
2022-08-19T09:26:58.575Z,24.20
2022-08-19T09:28:22.423Z,24.50
2022-08-19T09:29:27.517Z,24.60
2022-08-19T09:30:40.529Z,24.80
2022-08-19T09:31:43.742Z,24.90
2022-08-19T09:32:46.625Z,24.80
2022-08-19T09:33:52.291Z,24.80
2022-08-19T09:34:59.389Z,24.70
2022-08-19T09:36:09.647Z,24.60
2022-08-19T09:37:16.885Z,24.50
2022-08-19T09:38:18.987Z,24.30
2022-08-19T09:39:20.992Z,24.10
2022-08-19T09:40:22.885Z,24.10
2022-08-19T09:41:30.686Z,23.90
2022-08-19T09:42:35.226Z,23.80
2022-08-19T09:43:44.587Z,23.70
2022-08-19T09:44:50.051Z,23.60
2022-08-19T09:45:53.692Z,23.50
2022-08-19T09:46:55.596Z,23.40
2022-08-19T09:47:58.547Z,23.40
2022-08-19T09:49:02.976Z,23.40
2022-08-19T09:50:12.544Z,23.30
2022-08-19T09:51:24.859Z,23.30
2022-08-19T09:52:32.468Z,23.30
2022-08-19T09:53:39.245Z,23.20
2022-08-19T09:54:44.185Z,23.20
2022-08-19T09:55:47.441Z,23.20
2022-08-19T09:56:49.501Z,23.10
2022-08-19T09:57:54.482Z,23.00
2022-08-19T09:58:58.765Z,22.90
2022-08-19T10:00:01.239Z,22.90
2022-08-19T10:01:10.841Z,22.90
2022-08-19T10:02:13.102Z,22.90
2022-08-19T10:03:15.121Z,22.90
2022-08-19T10:04:20.617Z,23.10
2022-08-19T10:05:43.108Z,23.30
2022-08-19T10:06:51.842Z,23.50
2022-08-19T10:07:56.896Z,23.80
2022-08-19T10:08:59.303Z,24.20
2022-08-19T10:10:01.550Z,24.50
2022-08-19T10:11:28.621Z,24.70
2022-08-19T10:12:29.612Z,24.70
2022-08-19T10:13:34.474Z,24.70
2022-08-19T10:14:37.762Z,24.60
2022-08-19T10:15:47.500Z,24.70
2022-08-19T10:16:52.065Z,25.00
2022-08-19T10:17:55.587Z,25.60
2022-08-19T10:18:59.862Z,26.10
2022-08-19T10:20:08.577Z,26.50
2022-08-19T10:21:15.848Z,26.90
2022-08-19T10:22:23.261Z,27.20
2022-08-19T10:23:30.658Z,27.20
2022-08-19T10:24:37.009Z,27.20
2022-08-19T10:25:39.555Z,27.10
2022-08-19T10:26:48.799Z,27.00
2022-08-19T10:27:59.170Z,26.80
2022-08-19T10:29:01.267Z,26.50
2022-08-19T10:30:10.010Z,26.30
2022-08-19T10:31:20.754Z,26.10
2022-08-19T10:32:46.459Z,25.90
2022-08-19T10:33:53.142Z,25.60
2022-08-19T10:34:58.125Z,25.50
2022-08-19T10:36:04.336Z,25.40
2022-08-19T10:37:10.714Z,25.40
2022-08-19T10:38:12.814Z,25.60
2022-08-19T10:39:17.432Z,26.00
2022-08-19T10:40:28.467Z,26.60
2022-08-19T10:41:34.443Z,27.40
2022-08-19T10:42:37.179Z,28.10
2022-08-19T10:43:41.280Z,28.80
2022-08-19T10:44:44.299Z,29.40
2022-08-19T10:45:58.624Z,29.80
2022-08-19T10:47:01.570Z,29.90
2022-08-19T10:48:05.375Z,29.80
2022-08-19T10:49:07.588Z,29.70
2022-08-19T10:50:28.528Z,29.40
2022-08-19T10:51:51.374Z,29.10
2022-08-19T10:52:53.236Z,28.60
2022-08-19T10:54:02.402Z,28.30
2022-08-19T10:55:29.262Z,28.30
2022-08-19T10:56:53.180Z,28.50
2022-08-19T10:58:03.377Z,28.80
2022-08-19T10:59:05.859Z,28.90
2022-08-19T11:00:08.348Z,29.30
2022-08-19T11:01:13.255Z,29.70
2022-08-19T11:02:15.309Z,30.00
2022-08-19T11:03:17.339Z,30.10
2022-08-19T11:04:20.788Z,30.20
2022-08-19T11:05:24.286Z,30.30
2022-08-19T11:06:28.117Z,30.30
2022-08-19T11:07:30.417Z,30.40
2022-08-19T11:08:33.613Z,30.40
2022-08-19T11:09:42.192Z,30.40
2022-08-19T11:10:47.408Z,30.20
2022-08-19T11:11:55.871Z,29.90
2022-08-19T11:12:58.372Z,29.70
2022-08-19T11:14:01.118Z,29.50
2022-08-19T11:15:03.122Z,29.70
2022-08-19T11:16:20.759Z,29.90
2022-08-19T11:17:24.571Z,30.30
2022-08-19T11:18:31.819Z,31.00
2022-08-19T11:19:34.790Z,31.50
2022-08-19T11:20:38.474Z,32.00
2022-08-19T11:21:45.321Z,32.40
2022-08-19T11:22:50.977Z,32.90
2022-08-19T11:24:02.101Z,33.30
2022-08-19T11:25:07.168Z,33.70
2022-08-19T11:26:09.259Z,33.80
2022-08-19T11:27:12.655Z,34.00
2022-08-19T11:28:15.420Z,34.20
2022-08-19T11:29:20.888Z,34.30
2022-08-19T11:30:22.788Z,34.30
2022-08-19T11:31:30.761Z,34.20
2022-08-19T11:32:33.391Z,34.00
2022-08-19T11:33:35.454Z,33.70
2022-08-19T11:34:37.733Z,33.60
2022-08-19T11:35:43.741Z,33.70
2022-08-19T11:36:48.613Z,33.90
2022-08-19T11:37:52.004Z,33.90
2022-08-19T11:38:56.529Z,33.70
2022-08-19T11:39:59.306Z,33.50
2022-08-19T11:41:03.246Z,33.30
2022-08-19T11:42:27.583Z,33.30
2022-08-19T11:43:31.575Z,33.30
2022-08-19T11:44:36.954Z,33.20
2022-08-19T11:45:38.974Z,32.90
2022-08-19T11:46:42.350Z,32.70
2022-08-19T11:47:45.103Z,32.40
2022-08-19T11:48:47.183Z,32.00
2022-08-19T11:49:49.129Z,31.50
2022-08-19T11:50:52.444Z,31.10
2022-08-19T11:51:54.488Z,30.90
2022-08-19T11:52:58.669Z,30.60
2022-08-19T11:54:01.643Z,30.30
2022-08-19T11:55:03.711Z,29.90
2022-08-19T11:56:06.777Z,29.60
2022-08-19T11:57:08.729Z,29.40
2022-08-19T11:58:18.946Z,29.20
2022-08-19T11:59:21.175Z,29.10
2022-08-19T12:00:22.985Z,28.90
2022-08-19T12:01:26.557Z,28.70
2022-08-19T12:02:28.364Z,28.70
2022-08-19T12:03:30.182Z,28.60
2022-08-19T12:04:31.981Z,28.60
2022-08-19T12:05:33.839Z,28.60
2022-08-19T12:06:41.254Z,28.50
2022-08-19T12:07:43.635Z,28.50
2022-08-19T12:08:46.325Z,28.50
2022-08-19T12:09:48.727Z,28.30
2022-08-19T12:10:50.647Z,28.30
2022-08-19T12:11:52.504Z,28.10
2022-08-19T12:12:58.503Z,28.10
2022-08-19T12:14:00.937Z,28.00
2022-08-19T12:15:03.479Z,27.80
2022-08-19T12:16:15.930Z,27.70
2022-08-19T12:17:17.718Z,27.70
2022-08-19T12:18:19.621Z,27.60
2022-08-19T12:19:22.378Z,27.40
2022-08-19T12:20:25.620Z,27.30
2022-08-19T12:21:29.669Z,27.20
2022-08-19T12:22:31.648Z,27.00
2022-08-19T12:23:33.555Z,27.00
2022-08-19T12:24:35.913Z,26.90
2022-08-19T12:25:44.224Z,26.80
2022-08-19T12:26:53.259Z,26.70
2022-08-19T12:27:57.636Z,26.60
2022-08-19T12:29:00.581Z,26.50
2022-08-19T12:30:03.800Z,26.50
2022-08-19T12:31:06.567Z,26.40
2022-08-19T12:32:08.805Z,26.30
2022-08-19T12:33:14.735Z,26.20
2022-08-19T12:34:16.684Z,26.10
2022-08-19T12:35:21.102Z,26.10
2022-08-19T12:36:25.975Z,26.20
2022-08-19T12:37:28.163Z,26.30
2022-08-19T12:38:30.640Z,26.40
2022-08-19T12:39:43.242Z,26.50
2022-08-19T12:40:49.075Z,26.70
2022-08-19T12:41:54.864Z,26.70
2022-08-19T12:42:58.401Z,26.70
2022-08-19T12:44:01.887Z,26.70
2022-08-19T12:45:04.086Z,26.70
2022-08-19T12:46:09.054Z,26.70
2022-08-19T12:47:17.983Z,26.60
2022-08-19T12:48:33.274Z,26.60
2022-08-19T12:49:54.569Z,26.50
2022-08-19T12:50:57.700Z,26.50
2022-08-19T12:51:59.532Z,26.60
2022-08-19T12:53:02.206Z,26.60
2022-08-19T12:54:05.714Z,26.60
2022-08-19T12:55:09.009Z,26.70
2022-08-19T12:56:12.590Z,26.60
2022-08-19T12:57:14.682Z,26.60
2022-08-19T12:58:16.591Z,26.60
2022-08-19T12:59:19.667Z,26.50
2022-08-19T13:00:22.846Z,26.40
2022-08-19T13:01:24.831Z,26.30
2022-08-19T13:02:27.422Z,26.30
2022-08-19T13:03:30.552Z,26.20
2022-08-19T13:04:32.880Z,26.10
2022-08-19T13:05:35.382Z,26.00
2022-08-19T13:06:37.923Z,26.00
2022-08-19T13:07:41.890Z,26.00
2022-08-19T13:08:43.840Z,26.00
2022-08-19T13:09:48.630Z,26.00
2022-08-19T13:10:50.435Z,26.00
2022-08-19T13:11:52.369Z,26.00
2022-08-19T13:12:54.405Z,26.10
2022-08-19T13:13:56.320Z,26.10
2022-08-19T13:14:58.230Z,26.00
2022-08-19T13:16:04.265Z,26.00
2022-08-19T13:17:06.149Z,26.00
2022-08-19T13:18:11.408Z,26.00
2022-08-19T13:19:14.169Z,25.90
2022-08-19T13:20:17.595Z,25.90
2022-08-19T13:21:21.044Z,25.80
2022-08-19T13:22:25.956Z,25.70
2022-08-19T13:23:27.738Z,25.70
2022-08-19T13:24:33.690Z,25.60
2022-08-19T13:25:37.161Z,25.70
2022-08-19T13:26:38.957Z,25.60
2022-08-19T13:27:41.181Z,25.60
2022-08-19T13:29:03.119Z,25.60
2022-08-19T13:30:25.396Z,25.60
2022-08-19T13:31:49.014Z,25.50
2022-08-19T13:33:09.234Z,25.50
2022-08-19T13:34:11.993Z,25.30
2022-08-19T13:35:16.880Z,25.30
2022-08-19T13:36:18.933Z,25.30
2022-08-19T13:37:40.848Z,25.20
2022-08-19T13:38:42.877Z,25.10
2022-08-19T13:39:45.973Z,25.10
2022-08-19T13:40:50.592Z,25.00
2022-08-19T13:41:53.366Z,25.00
2022-08-19T13:42:56.641Z,25.00
2022-08-19T13:43:58.845Z,25.00
2022-08-19T13:45:00.750Z,25.00
2022-08-19T13:46:11.222Z,24.90
2022-08-19T13:47:14.786Z,24.90
2022-08-19T13:48:17.491Z,24.80
2022-08-19T13:49:19.436Z,24.70
2022-08-19T13:50:26.638Z,24.70
2022-08-19T13:51:28.625Z,24.50
2022-08-19T13:52:30.493Z,24.40
2022-08-19T13:53:32.329Z,24.30
2022-08-19T13:54:34.225Z,24.20
2022-08-19T13:55:38.159Z,24.00
2022-08-19T13:56:45.602Z,23.80
2022-08-19T13:57:50.744Z,23.70
2022-08-19T13:58:52.551Z,23.50
2022-08-19T13:59:54.581Z,23.30
2022-08-19T14:00:56.532Z,23.10
2022-08-19T14:02:02.049Z,22.90
2022-08-19T14:03:09.014Z,22.80
2022-08-19T14:04:11.194Z,22.70
2022-08-19T14:05:15.123Z,22.50
2022-08-19T14:06:17.771Z,22.40
2022-08-19T14:07:19.560Z,22.30
2022-08-19T14:08:21.364Z,22.20
2022-08-19T14:09:23.206Z,22.20